KHNR

Details ICAO KHNR
Name HARLAN MUNI
Region United States
Timezone America/Chicago (UTC-6.0)
Plans Departing 0
Arriving 2
Stats Elevation 1,231 ft / 375 m (AMSL)
Location 41.584269° -95.339165°
Runways 2
Magnetic Variation 2.096° E
Sunrise 2017-12-18 13:44:32 UTC / 2017-12-18 07:44:32 Local
Sunset 2017-12-18 22:54:22 UTC / 2017-12-18 16:54:22 Local
Advertisement - Login to hide

Runways

ID Width Length Bearing (true) Bearing (mag) Surface Threshold Offset Overrun Length
03 120 ft / 37 m 1,702 ft / 519 m 37.28° 35.18° Grass 0 ft / 0 m 0 ft / 0 m
15 75 ft / 23 m 4,101 ft / 1,250 m 156.41° 154.31° Asphalt 0 ft / 0 m 0 ft / 0 m
21 120 ft / 37 m 1,702 ft / 519 m 217.28° 215.18° Grass 0 ft / 0 m 0 ft / 0 m
33 75 ft / 23 m 4,101 ft / 1,250 m 336.42° 334.32° Asphalt 0 ft / 0 m 0 ft / 0 m

Map

Weather


0- 5 10 15 20 25 30 35+ Temperature / ° C

Clouds and Precipitation
Forecast for 2017-12-18 12:00 UTC. Updated 8 minutes ago

Ground ~20,000 ft ~40,000 ft Winds

METAR

KHNR 180915Z AUTO 20005KT 7SM CLR M07/M06 A2999 RMK AO2

TAF

Not found

Frequencies

Recorded 118.32 MHz AWOS 3
Approach 124.50 MHz OMAHA APP/DEP
Unicom 122.80 MHz CTAF/UNICOM
Warning: Do not use this data for real-world aviation or navigation. No guarantee of current accuracy is given.